createdAt,value
2018-09-01T00:01:30.471Z,101379.13
2018-09-01T00:06:27.903Z,101368.10
2018-09-01T00:11:25.303Z,101372.39
2018-09-01T00:16:22.980Z,101372.58
2018-09-01T00:21:20.483Z,101369.73
2018-09-01T00:26:17.894Z,101380.13
2018-09-01T00:31:15.343Z,101373.33
2018-09-01T00:36:12.716Z,101378.48
2018-09-01T00:41:10.203Z,101386.39
2018-09-01T00:46:07.694Z,101388.06
2018-09-01T00:51:05.085Z,101392.05
2018-09-01T00:56:02.604Z,101394.94
2018-09-01T01:01:00.009Z,101390.20
2018-09-01T01:05:57.405Z,101399.25
2018-09-01T01:10:54.822Z,101395.28
2018-09-01T01:15:52.339Z,101394.16
2018-09-01T01:20:49.730Z,101403.27
2018-09-01T01:25:47.370Z,101401.61
2018-09-01T01:30:44.859Z,101403.52
2018-09-01T01:35:42.275Z,101409.14
2018-09-01T01:40:39.664Z,101406.12
2018-09-01T01:45:37.687Z,101403.84
2018-09-01T01:50:35.078Z,101405.78
2018-09-01T01:55:32.463Z,101412.23
2018-09-01T02:00:29.844Z,101410.58
2018-09-01T02:05:31.115Z,101418.11
2018-09-01T02:10:28.498Z,101432.98
2018-09-01T02:15:25.903Z,101432.86
2018-09-01T02:20:23.336Z,101432.52
2018-09-01T02:25:20.752Z,101432.23
2018-09-01T02:30:18.126Z,101436.45
2018-09-01T02:35:15.503Z,101446.50
2018-09-01T02:40:12.971Z,101443.33
2018-09-01T02:45:11.291Z,101443.45
2018-09-01T02:50:09.756Z,101438.09
2018-09-01T02:55:07.175Z,101439.14
2018-09-01T03:00:37.539Z,101441.42
2018-09-01T03:05:34.919Z,101451.53
2018-09-01T03:10:32.299Z,101452.23
2018-09-01T03:15:29.674Z,101452.30
2018-09-01T03:20:27.072Z,101445.24
2018-09-01T03:25:24.458Z,101451.98
2018-09-01T03:30:21.837Z,101443.47
2018-09-01T03:35:19.215Z,101453.95
2018-09-01T03:40:16.605Z,101446.22
2018-09-01T03:45:14.022Z,101444.61
2018-09-01T03:50:12.046Z,101452.04
2018-09-01T03:55:09.469Z,101448.74
2018-09-01T04:00:06.958Z,101443.83
2018-09-01T04:05:04.810Z,101445.48
2018-09-01T04:10:02.228Z,101449.91
2018-09-01T04:14:59.614Z,101456.13
2018-09-01T04:19:58.070Z,101443.62
2018-09-01T04:24:55.484Z,101447.70
2018-09-01T04:29:53.358Z,101448.84
2018-09-01T04:34:50.760Z,101450.97
2018-09-01T04:39:48.151Z,101467.37
2018-09-01T04:44:45.589Z,101467.70
2018-09-01T04:49:45.697Z,101470.45
2018-09-01T04:54:43.236Z,101477.51
2018-09-01T04:59:40.691Z,101489.08
2018-09-01T05:04:38.080Z,101495.09
2018-09-01T05:09:35.490Z,101495.63
2018-09-01T05:14:32.880Z,101503.37
2018-09-01T05:19:37.103Z,101516.02
2018-09-01T05:24:34.548Z,101523.72
2018-09-01T05:29:32.015Z,101519.28
2018-09-01T05:34:29.666Z,101507.02
2018-09-01T05:39:27.116Z,101504.45
2018-09-01T05:44:24.531Z,101507.23
2018-09-01T05:49:27.662Z,101510.79
2018-09-01T05:54:25.192Z,101521.23
2018-09-01T05:59:22.999Z,101531.53
2018-09-01T06:04:20.444Z,101530.30
2018-09-01T06:09:17.831Z,101540.03
2018-09-01T06:14:15.234Z,101542.73
2018-09-01T06:19:13.213Z,101541.02
2018-09-01T06:24:10.792Z,101548.92
2018-09-01T06:29:10.866Z,101551.27
2018-09-01T06:34:08.322Z,101561.48
2018-09-01T06:39:06.479Z,101568.79
2018-09-01T06:44:05.606Z,101567.88
2018-09-01T06:49:03.248Z,101567.84
2018-09-01T06:54:00.672Z,101572.53
2018-09-01T06:58:58.127Z,101566.88
2018-09-01T07:03:55.539Z,101573.32
2018-09-01T07:08:53.016Z,101584.23
2018-09-01T07:13:50.399Z,101584.08
2018-09-01T07:18:47.886Z,101583.09
2018-09-01T07:23:45.267Z,101580.30
2018-09-01T07:28:44.744Z,101582.51
2018-09-01T07:33:42.147Z,101581.81
2018-09-01T07:38:49.069Z,101580.69
2018-09-01T07:43:50.489Z,101584.88
2018-09-01T07:48:55.177Z,101596.03
2018-09-01T07:53:52.651Z,101596.50
2018-09-01T07:58:50.625Z,101604.34
2018-09-01T08:03:48.156Z,101613.69
2018-09-01T08:08:45.606Z,101613.29
2018-09-01T08:13:43.153Z,101602.09
2018-09-01T08:18:40.512Z,101609.01
2018-09-01T08:23:38.422Z,101614.46
2018-09-01T08:28:35.999Z,101614.50
2018-09-01T08:33:33.419Z,101616.02
2018-09-01T08:38:30.823Z,101615.06
2018-09-01T08:43:28.215Z,101615.33
2018-09-01T08:48:25.642Z,101609.61
2018-09-01T08:53:24.248Z,101617.21
2018-09-01T08:58:24.130Z,101610.04
2018-09-01T09:03:21.604Z,101609.85
2018-09-01T09:08:19.018Z,101617.87
2018-09-01T09:13:16.435Z,101615.79
2018-09-01T09:18:13.819Z,101626.27
2018-09-01T09:23:11.261Z,101613.88
2018-09-01T09:28:08.659Z,101613.73
2018-09-01T09:33:07.600Z,101620.97
2018-09-01T09:38:08.180Z,101627.29
2018-09-01T09:43:11.418Z,101633.19
2018-09-01T09:48:08.910Z,101634.44
2018-09-01T09:53:06.409Z,101627.47
2018-09-01T09:58:04.108Z,101622.47
2018-09-01T10:03:01.891Z,101618.04
2018-09-01T10:07:59.355Z,101618.02
2018-09-01T10:12:56.796Z,101615.47
2018-09-01T10:17:54.299Z,101618.93
2018-09-01T10:22:52.311Z,101619.02
2018-09-01T10:27:49.738Z,101626.30
2018-09-01T10:32:47.174Z,101623.48
2018-09-01T10:37:44.672Z,101622.72
2018-09-01T10:42:42.092Z,101612.55
2018-09-01T10:47:40.089Z,101611.00
2018-09-01T10:52:38.333Z,101588.84
2018-09-01T10:57:36.306Z,101588.59
2018-09-01T11:02:33.719Z,101578.92
2018-09-01T11:07:31.767Z,101573.44
2018-09-01T11:12:29.271Z,101575.47
2018-09-01T11:17:26.684Z,101559.42
2018-09-01T11:22:24.287Z,101560.67
2018-09-01T11:27:22.349Z,101557.38
2018-09-01T11:32:19.763Z,101565.80
2018-09-01T11:37:17.147Z,101553.95
2018-09-01T11:42:14.539Z,101552.66
2018-09-01T11:47:12.718Z,101547.61
2018-09-01T11:52:10.124Z,101546.94
2018-09-01T11:57:07.672Z,101543.56
2018-09-01T12:02:05.203Z,101534.41
2018-09-01T12:07:02.639Z,101538.94
2018-09-01T12:12:00.067Z,101549.77
2018-09-01T12:16:57.483Z,101556.73
2018-09-01T12:21:54.924Z,101543.66
2018-09-01T12:26:52.303Z,101536.14
2018-09-01T12:31:49.703Z,101538.44
2018-09-01T12:36:47.117Z,101538.58
2018-09-01T12:41:44.530Z,101539.25
2018-09-01T12:46:42.231Z,101527.08
2018-09-01T12:51:39.654Z,101517.63
2018-09-01T12:56:37.865Z,101520.92
2018-09-01T13:01:35.567Z,101529.02
2018-09-01T13:06:33.076Z,101525.34
2018-09-01T13:11:30.503Z,101526.01
2018-09-01T13:16:28.047Z,101509.31
2018-09-01T13:21:25.518Z,101514.13
2018-09-01T13:26:22.938Z,101511.75
2018-09-01T13:31:20.424Z,101495.81
2018-09-01T13:36:17.857Z,101501.41
2018-09-01T13:41:15.915Z,101488.47
2018-09-01T13:46:13.407Z,101496.61
2018-09-01T13:51:10.858Z,101510.39
2018-09-01T13:56:08.266Z,101506.90
2018-09-01T14:01:05.697Z,101507.03
2018-09-01T14:06:03.225Z,101507.99
2018-09-01T14:11:00.618Z,101518.80
2018-09-01T14:15:58.010Z,101524.86
2018-09-01T14:20:55.427Z,101514.25
2018-09-01T14:25:52.839Z,101511.76
2018-09-01T14:30:50.495Z,101511.37
2018-09-01T14:35:48.093Z,101508.59
2018-09-01T14:40:45.878Z,101503.33
2018-09-01T14:45:43.294Z,101495.22
2018-09-01T14:50:40.732Z,101491.37
2018-09-01T14:55:38.715Z,101486.95
2018-09-01T15:00:36.255Z,101480.50
2018-09-01T15:05:33.947Z,101483.48
2018-09-01T15:10:31.324Z,101485.27
2018-09-01T15:15:31.281Z,101493.55
2018-09-01T15:20:33.568Z,101492.91
2018-09-01T15:25:31.702Z,101490.05
2018-09-01T15:30:31.778Z,101493.95
2018-09-01T15:35:29.464Z,101482.45
2018-09-01T15:40:27.407Z,101484.13
2018-09-01T15:45:31.097Z,101475.11
2018-09-01T15:50:34.750Z,101481.98
2018-09-01T15:55:32.314Z,101477.80
2018-09-01T16:00:30.245Z,101477.91
2018-09-01T16:05:28.046Z,101479.05
2018-09-01T16:10:26.929Z,101483.22
2018-09-01T16:15:28.132Z,101474.06
2018-09-01T16:20:30.231Z,101487.45
2018-09-01T16:25:31.379Z,101491.61
2018-09-01T16:30:28.890Z,101489.23
2018-09-01T16:35:26.311Z,101488.20
2018-09-01T16:40:25.015Z,101488.05
2018-09-01T16:45:23.331Z,101485.08
2018-09-01T16:50:22.894Z,101488.42
2018-09-01T16:55:21.811Z,101480.30
2018-09-01T17:00:21.042Z,101485.83
2018-09-01T17:05:18.588Z,101493.63
2018-09-01T17:10:18.010Z,101497.22
2018-09-01T17:15:15.627Z,101501.61
2018-09-01T17:20:14.054Z,101512.73
2018-09-01T17:25:11.448Z,101516.56
2018-09-01T17:30:08.955Z,101518.48
2018-09-01T17:35:06.378Z,101521.55
2018-09-01T17:40:03.863Z,101527.22
2018-09-01T17:45:01.298Z,101530.73
2018-09-01T17:49:59.977Z,101539.02
2018-09-01T17:54:57.471Z,101529.88
2018-09-01T17:59:54.899Z,101528.48
2018-09-01T18:04:52.608Z,101534.59
2018-09-01T18:09:50.215Z,101534.49
2018-09-01T18:14:47.636Z,101541.84
2018-09-01T18:19:50.779Z,101545.91
2018-09-01T18:24:48.214Z,101543.09
2018-09-01T18:29:49.314Z,101552.69
2018-09-01T18:34:54.423Z,101551.45
2018-09-01T18:39:52.527Z,101550.34
2018-09-01T18:44:49.963Z,101563.05
2018-09-01T18:49:56.333Z,101572.98
2018-09-01T18:54:54.474Z,101575.50
2018-09-01T18:59:51.908Z,101573.55
2018-09-01T19:04:49.428Z,101580.12
2018-09-01T19:09:46.755Z,101572.25
2018-09-01T19:14:44.179Z,101576.98
2018-09-01T19:19:47.915Z,101587.89
2018-09-01T19:24:45.423Z,101585.67
2018-09-01T19:29:42.807Z,101587.22
2018-09-01T19:34:40.303Z,101585.77
2018-09-01T19:39:37.745Z,101583.84
2018-09-01T19:44:35.226Z,101581.87
2018-09-01T19:49:36.628Z,101578.43
2018-09-01T19:54:34.355Z,101573.73
2018-09-01T19:59:33.618Z,101581.36
2018-09-01T20:04:31.325Z,101583.58
2018-09-01T20:09:28.725Z,101579.01
2018-09-01T20:14:26.303Z,101582.76
2018-09-01T20:19:30.431Z,101581.12
2018-09-01T20:24:27.866Z,101583.11
2018-09-01T20:29:25.337Z,101587.71
2018-09-01T20:34:22.718Z,101586.03
2018-09-01T20:39:25.555Z,101586.48
2018-09-01T20:44:22.955Z,101591.72
2018-09-01T20:49:25.188Z,101598.00
2018-09-01T20:54:22.759Z,101597.90
2018-09-01T20:59:20.176Z,101591.28
2018-09-01T21:04:17.685Z,101600.91
2018-09-01T21:09:15.043Z,101601.44
2018-09-01T21:14:12.489Z,101607.14
2018-09-01T21:19:09.947Z,101612.98
2018-09-01T21:24:07.339Z,101615.73
2018-09-01T21:29:04.816Z,101620.52
2018-09-01T21:34:02.182Z,101618.70
2018-09-01T21:38:59.566Z,101623.91
2018-09-01T21:43:56.990Z,101625.23
2018-09-01T21:48:54.466Z,101621.36
2018-09-01T21:53:51.871Z,101614.19
2018-09-01T21:58:49.334Z,101612.68
2018-09-01T22:03:47.156Z,101614.11
2018-09-01T22:08:44.530Z,101614.91
2018-09-01T22:13:42.681Z,101614.30
2018-09-01T22:18:40.047Z,101611.12
2018-09-01T22:23:37.752Z,101610.09
2018-09-01T22:28:35.303Z,101613.14
2018-09-01T22:33:32.691Z,101609.67
2018-09-01T22:38:30.523Z,101614.17
2018-09-01T22:43:28.489Z,101614.86
2018-09-01T22:48:25.956Z,101608.84
2018-09-01T22:53:23.347Z,101611.80
2018-09-01T22:58:21.338Z,101611.28
2018-09-01T23:03:18.719Z,101616.67
2018-09-01T23:08:16.139Z,101617.81
2018-09-01T23:13:14.101Z,101611.27
2018-09-01T23:18:11.476Z,101609.72
2018-09-01T23:23:08.883Z,101603.09
2018-09-01T23:28:06.267Z,101595.70
2018-09-01T23:33:03.651Z,101607.30
2018-09-01T23:38:01.066Z,101609.87
2018-09-01T23:42:58.436Z,101601.38
2018-09-01T23:47:55.822Z,101600.56
2018-09-01T23:52:53.225Z,101591.89
2018-09-01T23:57:50.607Z,101605.95
